createdAt,value
2019-04-07T00:00:27.806Z,10.17
2019-04-07T00:02:57.379Z,10.10
2019-04-07T00:05:26.827Z,10.06
2019-04-07T00:07:57.465Z,10.12
2019-04-07T00:10:27.219Z,10.05
2019-04-07T00:12:57.290Z,10.08
2019-04-07T00:15:26.875Z,10.03
2019-04-07T00:17:56.338Z,10.05
2019-04-07T00:20:25.838Z,10.02
2019-04-07T00:22:55.283Z,9.90
2019-04-07T00:25:25.120Z,9.93
2019-04-07T00:27:54.671Z,9.97
2019-04-07T00:30:24.175Z,9.96
2019-04-07T00:32:53.679Z,10.11
2019-04-07T00:35:30.500Z,10.13
2019-04-07T00:37:54.504Z,10.05
2019-04-07T00:40:24.107Z,10.08
2019-04-07T00:42:53.564Z,10.00
2019-04-07T00:45:23.058Z,9.87
2019-04-07T00:47:52.639Z,9.81
2019-04-07T00:50:22.088Z,9.75
2019-04-07T00:52:51.492Z,9.79
2019-04-07T00:55:21.018Z,9.76
2019-04-07T00:57:50.796Z,9.69
2019-04-07T01:00:22.020Z,9.77
2019-04-07T01:02:51.861Z,9.79
2019-04-07T01:05:33.736Z,9.74
2019-04-07T01:07:52.592Z,9.78
2019-04-07T01:10:22.070Z,9.79
2019-04-07T01:12:52.166Z,9.82
2019-04-07T01:15:21.747Z,9.85
2019-04-07T01:17:51.291Z,9.93
2019-04-07T01:20:20.720Z,9.92
2019-04-07T01:22:50.182Z,9.90
2019-04-07T01:25:20.299Z,9.93
2019-04-07T01:27:50.037Z,10.00
2019-04-07T01:30:19.978Z,9.91
2019-04-07T01:32:49.948Z,9.73
2019-04-07T01:35:20.157Z,9.78
2019-04-07T01:37:49.802Z,9.79
2019-04-07T01:40:19.853Z,9.73
2019-04-07T01:43:00.055Z,9.73
2019-04-07T01:45:47.301Z,9.74
2019-04-07T01:48:34.674Z,9.66
2019-04-07T01:51:11.873Z,9.56
2019-04-07T01:53:42.917Z,9.48
2019-04-07T01:56:30.451Z,9.55
2019-04-07T01:59:02.623Z,9.48
2019-04-07T02:01:36.468Z,9.36
2019-04-07T02:04:08.102Z,9.40
2019-04-07T02:06:55.434Z,9.47
2019-04-07T02:09:26.503Z,9.43
2019-04-07T02:12:03.460Z,9.22
2019-04-07T02:14:46.695Z,9.13
2019-04-07T02:17:23.415Z,9.17
2019-04-07T02:19:54.952Z,9.23
2019-04-07T02:22:42.575Z,9.09
2019-04-07T02:25:14.026Z,9.13
2019-04-07T02:27:45.890Z,9.03
2019-04-07T02:30:23.695Z,8.97
2019-04-07T02:32:58.285Z,8.91
2019-04-07T02:38:32.445Z,8.83
2019-04-07T02:41:04.265Z,8.76
2019-04-07T02:46:51.670Z,8.76
2019-04-07T02:49:39.292Z,8.72
2019-04-07T02:52:14.485Z,8.72
2019-04-07T02:55:02.575Z,8.77
2019-04-07T02:57:33.965Z,8.78
2019-04-07T03:00:09.354Z,8.78
2019-04-07T03:02:46.312Z,8.72
2019-04-07T03:05:20.948Z,8.73
2019-04-07T03:08:04.478Z,8.75
2019-04-07T03:10:51.475Z,8.71
2019-04-07T03:13:29.070Z,8.79
2019-04-07T03:16:12.241Z,8.76
2019-04-07T03:18:44.280Z,8.70
2019-04-07T03:21:15.753Z,8.65
2019-04-07T03:23:47.506Z,8.64
2019-04-07T03:26:33.849Z,8.62
2019-04-07T03:29:05.313Z,8.64
2019-04-07T03:31:53.664Z,8.57
2019-04-07T03:34:44.776Z,8.64
2019-04-07T03:37:34.305Z,8.64
2019-04-07T03:40:13.850Z,8.67
2019-04-07T03:42:55.189Z,8.68
2019-04-07T03:45:32.558Z,8.71
2019-04-07T03:48:07.074Z,8.72
2019-04-07T03:50:54.809Z,8.58
2019-04-07T03:53:35.690Z,8.62
2019-04-07T03:59:20.053Z,8.50
2019-04-07T04:01:54.155Z,8.58
2019-04-07T04:07:22.865Z,8.66
2019-04-07T04:10:01.598Z,8.67
2019-04-07T04:15:18.361Z,8.68
2019-04-07T04:17:48.217Z,8.71
2019-04-07T04:20:17.768Z,8.72
2019-04-07T04:22:47.322Z,8.57
2019-04-07T04:25:17.237Z,8.69
2019-04-07T04:27:46.828Z,8.75
2019-04-07T04:30:16.879Z,8.78
2019-04-07T04:32:46.500Z,8.70
2019-04-07T04:35:16.939Z,8.63
2019-04-07T04:37:51.444Z,8.75
2019-04-07T04:40:17.926Z,8.79
2019-04-07T04:42:48.559Z,8.64
2019-04-07T04:45:18.103Z,8.65
2019-04-07T04:47:48.233Z,8.70
2019-04-07T04:50:18.409Z,8.76
2019-04-07T04:52:48.712Z,8.80
2019-04-07T04:55:18.898Z,8.80
2019-04-07T04:57:48.484Z,8.78
2019-04-07T05:00:18.794Z,8.79
2019-04-07T05:02:49.459Z,8.91
2019-04-07T05:05:19.050Z,8.85
2019-04-07T05:07:57.701Z,8.91
2019-04-07T05:10:19.829Z,9.03
2019-04-07T05:12:49.212Z,8.99
2019-04-07T05:15:18.661Z,9.04
2019-04-07T05:17:48.015Z,9.10
2019-04-07T05:20:17.486Z,9.09
2019-04-07T05:22:47.510Z,9.18
2019-04-07T05:25:17.403Z,9.23
2019-04-07T05:27:47.070Z,9.27
2019-04-07T05:30:16.833Z,9.22
2019-04-07T05:32:46.909Z,9.45
2019-04-07T05:35:16.514Z,9.66
2019-04-07T05:37:46.013Z,9.73
2019-04-07T05:40:15.583Z,9.85
2019-04-07T05:42:45.412Z,9.79
2019-04-07T05:45:15.173Z,9.76
2019-04-07T05:47:48.628Z,9.77
2019-04-07T05:50:16.581Z,9.92
2019-04-07T05:52:46.592Z,10.01
2019-04-07T05:55:20.615Z,10.02
2019-04-07T05:57:48.503Z,10.20
2019-04-07T06:00:18.935Z,10.26
2019-04-07T06:02:49.138Z,10.29
2019-04-07T06:05:19.379Z,10.23
2019-04-07T06:07:49.097Z,10.25
2019-04-07T06:10:22.847Z,10.40
2019-04-07T06:12:49.804Z,10.21
2019-04-07T06:15:22.256Z,10.43
2019-04-07T06:17:52.205Z,10.35
2019-04-07T06:20:22.494Z,10.44
2019-04-07T06:22:53.627Z,10.68
2019-04-07T06:25:23.403Z,10.67
2019-04-07T06:27:53.243Z,10.86
2019-04-07T06:30:24.124Z,11.01
2019-04-07T06:32:53.828Z,11.43
2019-04-07T06:35:23.491Z,11.50
2019-04-07T06:37:53.140Z,11.46
2019-04-07T06:40:23.122Z,11.76
2019-04-07T06:42:53.345Z,12.07
2019-04-07T06:45:33.404Z,12.19
2019-04-07T06:48:09.179Z,12.27
2019-04-07T06:50:49.397Z,12.55
2019-04-07T06:53:17.467Z,12.61
2019-04-07T06:55:46.098Z,12.83
2019-04-07T06:58:33.218Z,13.05
2019-04-07T07:01:04.662Z,12.67
2019-04-07T07:03:51.480Z,12.80
2019-04-07T07:06:29.446Z,13.29
2019-04-07T07:09:07.302Z,13.23
2019-04-07T07:11:55.279Z,13.17
2019-04-07T07:14:44.969Z,13.33
2019-04-07T07:17:31.256Z,13.24
2019-04-07T07:20:05.299Z,13.09
2019-04-07T07:22:49.459Z,13.08
2019-04-07T07:25:20.379Z,12.94
2019-04-07T07:27:50.055Z,12.76
2019-04-07T07:30:20.312Z,12.82
2019-04-07T07:32:50.771Z,13.12
2019-04-07T07:35:20.293Z,12.65
2019-04-07T07:37:50.038Z,12.60
2019-04-07T07:40:19.614Z,12.73
2019-04-07T07:42:50.960Z,12.99
2019-04-07T07:45:20.583Z,13.11
2019-04-07T07:47:53.246Z,13.48
2019-04-07T07:50:21.260Z,13.70
2019-04-07T07:52:53.356Z,13.88
2019-04-07T07:55:22.007Z,13.95
2019-04-07T07:57:55.499Z,13.90
2019-04-07T08:00:22.855Z,13.80
2019-04-07T08:02:53.454Z,13.79
2019-04-07T08:05:23.874Z,13.54
2019-04-07T08:07:54.057Z,13.48
2019-04-07T08:10:25.361Z,13.49
2019-04-07T08:12:54.945Z,13.78
2019-04-07T08:15:29.670Z,13.73
2019-04-07T08:17:56.299Z,13.89
2019-04-07T08:20:25.886Z,13.79
2019-04-07T08:22:56.096Z,13.90
2019-04-07T08:25:26.639Z,13.81
2019-04-07T08:27:57.285Z,13.83
2019-04-07T08:30:27.203Z,13.74
2019-04-07T08:32:58.596Z,13.86
2019-04-07T08:35:29.805Z,14.26
2019-04-07T08:37:59.757Z,14.27
2019-04-07T08:40:29.434Z,14.45
2019-04-07T08:42:59.398Z,14.72
2019-04-07T08:45:31.672Z,14.97
2019-04-07T08:48:00.771Z,14.63
2019-04-07T08:50:31.034Z,14.38
2019-04-07T08:53:00.565Z,14.61
2019-04-07T08:55:30.901Z,14.58
2019-04-07T08:58:02.484Z,14.75
2019-04-07T09:00:33.609Z,15.36
2019-04-07T09:03:10.569Z,15.38
2019-04-07T09:05:34.419Z,15.16
2019-04-07T09:08:06.074Z,15.28
2019-04-07T09:10:37.183Z,15.31
2019-04-07T09:13:09.264Z,15.25
2019-04-07T09:15:43.587Z,15.30
2019-04-07T09:18:19.195Z,15.67
2019-04-07T09:20:53.237Z,15.69
2019-04-07T09:23:27.567Z,15.41
2019-04-07T09:26:16.085Z,15.14
2019-04-07T09:28:53.431Z,15.45
2019-04-07T09:31:23.294Z,15.47
2019-04-07T09:33:55.084Z,15.27
2019-04-07T09:36:31.595Z,15.00
2019-04-07T09:39:03.768Z,14.66
2019-04-07T09:41:52.647Z,15.06
2019-04-07T09:44:30.869Z,14.88
2019-04-07T09:47:04.309Z,14.89
2019-04-07T09:49:35.440Z,14.94
2019-04-07T09:52:23.385Z,14.85
2019-04-07T09:55:01.042Z,14.80
2019-04-07T09:57:39.782Z,15.13
2019-04-07T10:00:14.500Z,15.40
2019-04-07T10:02:49.144Z,15.14
2019-04-07T10:05:20.129Z,15.05
2019-04-07T10:08:11.977Z,15.50
2019-04-07T10:10:49.797Z,15.86
2019-04-07T10:13:27.447Z,15.85
2019-04-07T10:16:02.279Z,15.57
2019-04-07T10:18:50.862Z,15.60
2019-04-07T10:21:21.995Z,15.39
2019-04-07T10:23:53.036Z,15.44
2019-04-07T10:26:37.973Z,15.46
2019-04-07T10:29:18.714Z,15.77
2019-04-07T10:31:56.586Z,15.42
2019-04-07T10:34:30.943Z,15.96
2019-04-07T10:37:08.273Z,16.84
2019-04-07T10:39:43.221Z,17.43
2019-04-07T10:42:23.635Z,17.31
2019-04-07T10:44:54.701Z,16.67
2019-04-07T10:47:26.052Z,16.37
2019-04-07T10:50:07.208Z,15.97
2019-04-07T10:52:52.094Z,16.10
2019-04-07T10:55:23.107Z,16.16
2019-04-07T10:58:10.673Z,15.69
2019-04-07T11:00:45.366Z,15.89
2019-04-07T11:03:33.064Z,16.24
2019-04-07T11:06:13.759Z,16.40
2019-04-07T11:08:56.746Z,16.54
2019-04-07T11:11:31.454Z,16.27
2019-04-07T11:14:05.841Z,16.65
2019-04-07T11:16:37.678Z,16.44
2019-04-07T11:21:47.746Z,16.68
2019-04-07T11:24:24.723Z,16.64
2019-04-07T11:26:59.325Z,16.56
2019-04-07T11:29:33.736Z,16.72
2019-04-07T11:32:05.571Z,17.03
2019-04-07T11:34:51.630Z,17.19
2019-04-07T11:37:25.400Z,16.64
2019-04-07T11:39:59.051Z,16.28
2019-04-07T11:42:37.031Z,16.55
2019-04-07T11:45:10.206Z,16.82
2019-04-07T11:47:50.927Z,16.06
2019-04-07T11:50:34.357Z,16.10
2019-04-07T11:53:11.545Z,16.68
2019-04-07T11:55:52.257Z,16.81
2019-04-07T11:58:39.834Z,16.62
2019-04-07T12:01:14.824Z,16.21
2019-04-07T12:03:52.152Z,16.72
2019-04-07T12:06:38.441Z,16.50
2019-04-07T12:09:25.920Z,16.73
2019-04-07T12:12:03.731Z,16.50
2019-04-07T12:14:38.495Z,16.43
2019-04-07T12:17:18.864Z,16.39
2019-04-07T12:19:57.147Z,16.10
2019-04-07T12:22:29.045Z,16.61
2019-04-07T12:25:12.531Z,16.87
2019-04-07T12:27:47.145Z,16.62
2019-04-07T12:30:22.517Z,16.61
2019-04-07T12:32:59.767Z,16.46
2019-04-07T12:35:50.929Z,16.49
2019-04-07T12:38:22.841Z,16.65
2019-04-07T12:41:16.583Z,16.45
2019-04-07T12:44:01.725Z,16.58
2019-04-07T12:46:33.260Z,16.29
2019-04-07T12:49:06.747Z,16.29
2019-04-07T12:51:52.401Z,16.29
2019-04-07T12:54:28.815Z,16.46
2019-04-07T12:57:02.565Z,16.50
2019-04-07T12:59:33.641Z,16.28
2019-04-07T13:02:11.433Z,16.11
2019-04-07T13:04:59.702Z,16.58
2019-04-07T13:07:40.320Z,16.38
2019-04-07T13:10:26.852Z,16.28
2019-04-07T13:13:07.993Z,16.23
2019-04-07T13:18:37.804Z,16.32
2019-04-07T13:21:22.978Z,16.26
2019-04-07T13:23:52.678Z,16.51
2019-04-07T13:26:41.215Z,16.70
2019-04-07T13:29:12.931Z,16.86
2019-04-07T13:31:44.128Z,16.38
2019-04-07T13:34:21.155Z,16.10
2019-04-07T13:37:08.049Z,16.14
2019-04-07T13:39:44.853Z,15.87
2019-04-07T13:42:31.236Z,15.93
2019-04-07T13:45:03.964Z,16.01
2019-04-07T13:47:42.260Z,16.13
2019-04-07T13:50:30.034Z,15.90
2019-04-07T13:53:16.484Z,16.02
2019-04-07T13:55:47.613Z,16.36
2019-04-07T13:58:37.003Z,16.57
2019-04-07T14:01:21.094Z,16.90
2019-04-07T14:04:02.420Z,17.20
2019-04-07T14:06:33.992Z,16.91
2019-04-07T14:09:22.890Z,17.00
2019-04-07T14:12:06.384Z,17.11
2019-04-07T14:14:45.937Z,17.14
2019-04-07T14:17:35.219Z,16.68
2019-04-07T14:20:11.900Z,16.74
2019-04-07T14:22:43.014Z,16.83
2019-04-07T14:25:26.770Z,17.00
2019-04-07T14:28:14.401Z,17.10
2019-04-07T14:31:02.096Z,16.89
2019-04-07T14:33:49.441Z,16.75
2019-04-07T14:36:23.329Z,16.49
2019-04-07T14:38:55.891Z,16.44
2019-04-07T14:41:33.284Z,16.08
2019-04-07T14:44:21.422Z,16.04
2019-04-07T14:47:08.884Z,16.11
2019-04-07T14:49:56.281Z,16.03
2019-04-07T14:52:28.258Z,15.86
2019-04-07T14:55:15.650Z,15.94
2019-04-07T15:00:49.113Z,15.91
2019-04-07T15:03:18.816Z,15.63
2019-04-07T15:08:31.935Z,15.41
2019-04-07T15:11:04.719Z,15.37
2019-04-07T15:13:34.326Z,15.32
2019-04-07T15:16:04.165Z,15.49
2019-04-07T15:18:33.919Z,15.58
2019-04-07T15:21:03.603Z,15.31
2019-04-07T15:23:33.491Z,15.23
2019-04-07T15:26:03.426Z,15.35
2019-04-07T15:28:34.965Z,15.29
2019-04-07T15:31:04.469Z,15.25
2019-04-07T15:33:34.413Z,15.03
2019-04-07T15:36:07.650Z,14.89
2019-04-07T15:38:40.311Z,14.95
2019-04-07T15:41:15.309Z,15.00
2019-04-07T15:43:41.148Z,14.92
2019-04-07T15:46:10.683Z,14.96
2019-04-07T15:48:40.342Z,14.87
2019-04-07T15:51:09.873Z,14.97
2019-04-07T15:53:40.215Z,15.11
2019-04-07T15:56:13.050Z,15.13
2019-04-07T15:58:41.959Z,15.10
2019-04-07T16:01:13.873Z,15.14
2019-04-07T16:03:47.682Z,15.10
2019-04-07T16:06:16.305Z,14.88
2019-04-07T16:08:46.692Z,14.82
2019-04-07T16:11:17.661Z,14.85
2019-04-07T16:13:47.724Z,14.94
2019-04-07T16:16:17.759Z,14.75
2019-04-07T16:18:47.337Z,14.71
2019-04-07T16:21:18.058Z,14.73
2019-04-07T16:23:50.218Z,14.85
2019-04-07T16:26:19.701Z,14.83
2019-04-07T16:28:51.972Z,14.85
2019-04-07T16:31:24.257Z,14.73
2019-04-07T16:33:54.051Z,14.65
2019-04-07T16:36:25.461Z,14.61
2019-04-07T16:39:00.377Z,14.45
2019-04-07T16:41:29.346Z,14.38
2019-04-07T16:43:59.006Z,14.32
2019-04-07T16:46:28.477Z,14.25
2019-04-07T16:48:58.722Z,14.27
2019-04-07T16:51:30.681Z,14.22
2019-04-07T16:54:00.332Z,14.33
2019-04-07T16:56:29.870Z,14.34
2019-04-07T16:59:01.308Z,14.30
2019-04-07T17:01:31.421Z,14.30
2019-04-07T17:04:01.032Z,14.26
2019-04-07T17:06:34.691Z,14.32
2019-04-07T17:09:02.507Z,14.30
2019-04-07T17:11:32.359Z,14.38
2019-04-07T17:14:03.223Z,14.43
2019-04-07T17:16:33.478Z,14.31
2019-04-07T17:19:05.952Z,14.35
2019-04-07T17:21:41.160Z,14.35
2019-04-07T17:24:12.055Z,14.25
2019-04-07T17:26:44.170Z,14.26
2019-04-07T17:29:17.137Z,14.24
2019-04-07T17:31:45.607Z,14.23
2019-04-07T17:34:15.677Z,14.22
2019-04-07T17:36:48.480Z,14.19
2019-04-07T17:39:37.732Z,14.12
2019-04-07T17:42:06.345Z,14.10
2019-04-07T17:47:25.925Z,14.19
2019-04-07T17:50:04.252Z,14.16
2019-04-07T17:52:40.392Z,14.22
2019-04-07T17:55:28.040Z,14.22
2019-04-07T17:58:07.896Z,14.09
2019-04-07T18:00:56.443Z,13.97
2019-04-07T18:03:30.285Z,13.98
2019-04-07T18:06:11.166Z,13.98
2019-04-07T18:09:07.859Z,13.96
2019-04-07T18:11:35.063Z,13.93
2019-04-07T18:14:15.888Z,13.84
2019-04-07T18:16:52.809Z,13.77
2019-04-07T18:19:36.292Z,13.74
2019-04-07T18:22:08.173Z,13.73
2019-04-07T18:24:46.085Z,13.75
2019-04-07T18:27:21.136Z,13.74
2019-04-07T18:29:52.773Z,13.78
2019-04-07T18:32:32.973Z,13.76
2019-04-07T18:35:07.564Z,13.72
2019-04-07T18:37:55.772Z,13.68
2019-04-07T18:40:46.375Z,13.62
2019-04-07T18:43:21.403Z,13.64
2019-04-07T18:46:05.128Z,13.66
2019-04-07T18:54:21.390Z,13.68
2019-04-07T18:57:09.834Z,13.70
2019-04-07T18:59:42.981Z,13.76
2019-04-07T19:02:16.431Z,13.71
2019-04-07T19:04:50.103Z,13.66
2019-04-07T19:07:22.530Z,13.70
2019-04-07T19:10:16.463Z,13.58
2019-04-07T19:18:30.806Z,13.54
2019-04-07T19:21:20.430Z,13.57
2019-04-07T19:24:17.091Z,13.63
2019-04-07T19:27:11.891Z,13.62
2019-04-07T19:29:44.265Z,13.61
2019-04-07T19:32:20.449Z,13.55
2019-04-07T19:34:57.233Z,13.52
2019-04-07T19:37:34.662Z,13.45
2019-04-07T19:40:09.808Z,13.46
2019-04-07T19:42:43.979Z,13.37
2019-04-07T19:45:28.810Z,13.31
2019-04-07T19:48:10.490Z,13.27
2019-04-07T19:50:42.564Z,13.29
2019-04-07T19:53:15.064Z,13.22
2019-04-07T19:55:56.847Z,13.18
2019-04-07T19:58:36.121Z,13.20
2019-04-07T20:01:06.500Z,13.16
2019-04-07T20:03:47.325Z,13.17
2019-04-07T20:06:23.123Z,13.14
2019-04-07T20:09:11.308Z,13.12
2019-04-07T20:11:51.466Z,13.12
2019-04-07T20:14:46.595Z,13.07
2019-04-07T20:17:29.489Z,13.02
2019-04-07T20:22:41.826Z,12.96
2019-04-07T20:25:15.887Z,13.02
2019-04-07T20:28:02.306Z,13.00
2019-04-07T20:33:41.442Z,12.94
2019-04-07T20:36:19.339Z,12.95
2019-04-07T20:38:45.371Z,12.97
2019-04-07T20:41:17.088Z,12.95
2019-04-07T20:46:34.508Z,12.96
2019-04-07T20:49:15.932Z,12.97
2019-04-07T20:52:03.152Z,13.03
2019-04-07T20:54:50.901Z,13.05
2019-04-07T20:57:24.841Z,13.03
2019-04-07T21:00:03.483Z,13.06
2019-04-07T21:02:35.072Z,13.07
2019-04-07T21:05:25.712Z,13.06
2019-04-07T21:10:58.954Z,13.05
2019-04-07T21:13:30.149Z,13.02
2019-04-07T21:16:23.666Z,13.03
2019-04-07T21:19:04.246Z,13.03
2019-04-07T21:21:34.621Z,12.99
2019-04-07T21:24:21.882Z,13.02
2019-04-07T21:27:10.087Z,13.03
2019-04-07T21:29:47.905Z,13.09
2019-04-07T21:32:34.109Z,13.09
2019-04-07T21:35:05.290Z,13.14
2019-04-07T21:37:45.085Z,13.17
2019-04-07T21:40:15.485Z,13.21
2019-04-07T21:42:48.293Z,13.17
2019-04-07T21:45:32.673Z,13.19
2019-04-07T21:48:07.388Z,13.21
2019-04-07T21:50:41.129Z,13.18
2019-04-07T21:53:12.113Z,13.12
2019-04-07T21:55:44.302Z,13.12
2019-04-07T21:58:16.583Z,13.14
2019-04-07T22:01:02.848Z,13.21
2019-04-07T22:03:39.445Z,13.22
2019-04-07T22:06:12.040Z,13.14
2019-04-07T22:08:45.345Z,13.15
2019-04-07T22:11:14.298Z,13.17
2019-04-07T22:13:43.849Z,13.19
2019-04-07T22:16:14.234Z,13.15
2019-04-07T22:18:44.948Z,13.22
2019-04-07T22:21:14.927Z,13.12
2019-04-07T22:23:44.484Z,13.04
2019-04-07T22:26:17.795Z,13.05
2019-04-07T22:28:45.126Z,13.07
2019-04-07T22:31:16.915Z,13.10
2019-04-07T22:33:46.643Z,13.14
2019-04-07T22:36:16.750Z,13.12
2019-04-07T22:38:46.260Z,13.08
2019-04-07T22:41:15.695Z,13.12
2019-04-07T22:43:47.842Z,12.95
2019-04-07T22:46:21.326Z,12.88
2019-04-07T22:48:48.041Z,12.92
2019-04-07T22:51:17.608Z,12.90
2019-04-07T22:53:47.596Z,12.93
2019-04-07T22:56:18.068Z,12.97
2019-04-07T22:58:48.555Z,12.93
2019-04-07T23:01:18.615Z,12.99
2019-04-07T23:03:48.145Z,13.06
2019-04-07T23:06:17.623Z,13.14
2019-04-07T23:08:47.216Z,13.11
2019-04-07T23:11:16.686Z,12.99
2019-04-07T23:13:47.186Z,13.02
2019-04-07T23:16:17.924Z,12.93
2019-04-07T23:18:48.055Z,13.00
2019-04-07T23:21:17.505Z,12.97
2019-04-07T23:23:46.968Z,13.03
2019-04-07T23:26:16.414Z,12.88
2019-04-07T23:28:47.089Z,12.87
2019-04-07T23:31:17.067Z,12.87
2019-04-07T23:33:46.668Z,12.86
2019-04-07T23:36:16.157Z,12.85
2019-04-07T23:38:45.618Z,12.94
2019-04-07T23:41:15.915Z,12.95
2019-04-07T23:43:45.981Z,12.96
2019-04-07T23:46:23.968Z,12.97
2019-04-07T23:48:47.602Z,12.91
2019-04-07T23:51:17.250Z,12.91
2019-04-07T23:54:31.442Z,12.84
2019-04-07T23:57:00.934Z,12.81
2019-04-07T23:59:30.538Z,12.72
